Time;durP1;ratioP1;P1;durP2;ratioP2;P2;SDS_P1;SDS_P2;PMS_P1;PMS_P2;Temp;Humidity;BMP_temperature;BMP_pressure;BME280_temperature;BME280_humidity;BME280_pressure;Samples;Min_cycle;Max_cycle;Signal;HPM_P1;HPM_P2
2022/07/26 00:01:44;;;;;;;8.23;2.08;;;19.00;99.90;;;;;;4916034;29;20052;-85
2022/07/26 00:04:30;;;;;;;7.72;2.42;;;19.00;99.90;;;;;;4915284;29;20507;-83
2022/07/26 00:07:17;;;;;;;5.75;1.80;;;19.00;99.90;;;;;;4900867;29;20416;-86
2022/07/26 00:10:05;;;;;;;5.40;1.85;;;19.00;99.90;;;;;;4916897;29;20060;-84
2022/07/26 00:12:51;;;;;;;8.35;2.15;;;19.00;99.90;;;;;;4917646;29;20052;-84
2022/07/26 00:15:42;;;;;;;9.40;1.90;;;19.00;99.90;;;;;;4919302;29;20048;-85
2022/07/26 00:18:28;;;;;;;6.22;1.65;;;19.00;99.90;;;;;;4919272;29;20056;-84
2022/07/26 00:21:15;;;;;;;10.43;1.67;;;18.90;99.90;;;;;;4918715;29;20056;-85
2022/07/26 00:24:02;;;;;;;10.60;1.85;;;18.90;99.90;;;;;;4919392;29;20048;-86
2022/07/26 00:26:48;;;;;;;6.68;1.58;;;19.00;99.90;;;;;;4919138;29;20064;-82
2022/07/26 00:29:34;;;;;;;10.13;1.95;;;19.00;99.90;;;;;;4923126;29;20056;-87
2022/07/26 00:32:21;;;;;;;8.80;1.95;;;19.00;99.90;;;;;;4926950;29;20044;-85
2022/07/26 00:35:10;;;;;;;8.15;2.25;;;19.00;99.90;;;;;;4927194;29;20144;-83
2022/07/26 00:38:00;;;;;;;8.55;1.98;;;18.90;99.90;;;;;;4922938;29;20523;-82
2022/07/26 00:40:47;;;;;;;7.70;1.80;;;18.90;99.90;;;;;;4919022;29;20518;-83
2022/07/26 00:43:34;;;;;;;13.27;3.17;;;18.90;99.90;;;;;;4917872;29;20556;-84
2022/07/26 00:46:20;;;;;;;8.93;2.45;;;18.90;99.90;;;;;;4918831;29;20064;-83
2022/07/26 00:49:06;;;;;;;8.30;2.15;;;18.90;99.90;;;;;;4919859;29;20196;-83
2022/07/26 00:51:52;;;;;;;12.02;2.85;;;18.80;99.90;;;;;;4921095;29;20055;-83
2022/07/26 00:54:44;;;;;;;10.13;2.15;;;18.90;99.90;;;;;;4921213;29;20069;-84
2022/07/26 00:57:30;;;;;;;11.23;2.75;;;18.80;99.90;;;;;;4918868;29;20048;-85
2022/07/26 01:00:20;;;;;;;8.68;2.72;;;18.90;99.90;;;;;;4920269;29;20052;-84
2022/07/26 01:03:06;;;;;;;7.88;2.50;;;18.80;99.90;;;;;;4902765;29;20142;-84
2022/07/26 01:05:53;;;;;;;11.73;3.47;;;18.80;99.90;;;;;;4919072;29;20055;-83
2022/07/26 01:08:39;;;;;;;13.45;3.50;;;18.80;99.90;;;;;;4918280;29;20059;-82
2022/07/26 01:11:25;;;;;;;7.50;2.78;;;18.80;99.90;;;;;;4918145;29;20058;-81
2022/07/26 01:14:12;;;;;;;8.13;2.08;;;18.80;99.90;;;;;;4921851;29;20702;-83
2022/07/26 01:16:58;;;;;;;9.75;2.25;;;18.80;99.90;;;;;;4923194;28;20067;-82
2022/07/26 01:19:44;;;;;;;7.85;2.72;;;18.80;99.90;;;;;;4928016;29;20048;-84
2022/07/26 01:22:30;;;;;;;6.35;2.80;;;18.80;99.90;;;;;;4922802;29;20100;-83
2022/07/26 01:25:27;;;;;;;9.38;2.47;;;18.80;99.90;;;;;;4919042;29;20082;-82
2022/07/26 01:28:14;;;;;;;7.07;1.73;;;18.70;99.90;;;;;;4919222;29;20420;-80
2022/07/26 01:31:00;;;;;;;10.85;2.30;;;18.70;99.90;;;;;;4919230;29;20079;-82
2022/07/26 01:33:46;;;;;;;14.15;2.33;;;18.60;99.90;;;;;;4918623;29;20057;-82
2022/07/26 01:36:33;;;;;;;11.73;2.45;;;18.50;99.90;;;;;;4917872;29;20529;-84
2022/07/26 01:39:19;;;;;;;13.02;2.72;;;18.50;99.90;;;;;;4916648;29;20468;-81
2022/07/26 01:42:05;;;;;;;13.57;2.42;;;18.40;99.90;;;;;;4917427;29;20051;-82
2022/07/26 01:44:51;;;;;;;10.90;2.17;;;18.40;99.90;;;;;;4918141;29;20504;-81
2022/07/26 01:47:39;;;;;;;11.20;2.05;;;18.20;99.90;;;;;;4917230;29;20056;-82
2022/07/26 01:50:25;;;;;;;12.88;2.95;;;18.10;99.90;;;;;;4916638;29;20054;-81
2022/07/26 01:53:11;;;;;;;6.82;1.85;;;18.00;99.90;;;;;;4916933;29;20495;-81
2022/07/26 01:55:58;;;;;;;9.60;2.30;;;18.00;99.90;;;;;;4915734;29;20052;-80
2022/07/26 01:58:44;;;;;;;13.73;2.10;;;17.90;99.90;;;;;;4916723;29;20087;-81
2022/07/26 02:01:30;;;;;;;13.82;2.40;;;17.90;99.90;;;;;;4917020;29;20052;-81
2022/07/26 02:07:21;;;;;;;7.72;2.05;;;17.70;99.90;;;;;;4924165;29;20059;-82
2022/07/26 02:10:12;;;;;;;9.63;1.60;;;17.70;99.90;;;;;;4920941;29;20063;-84
2022/07/26 02:12:58;;;;;;;9.95;1.48;;;17.70;99.90;;;;;;4917949;29;20464;-81
2022/07/26 02:15:44;;;;;;;11.60;1.92;;;17.60;99.90;;;;;;4900962;29;20064;-82
2022/07/26 02:18:30;;;;;;;9.73;1.92;;;17.60;99.90;;;;;;4916485;29;20492;-83
2022/07/26 02:21:17;;;;;;;8.75;1.42;;;17.50;99.90;;;;;;4916620;29;20083;-83
2022/07/26 02:24:05;;;;;;;10.82;2.20;;;17.50;99.90;;;;;;4916257;29;20578;-84
2022/07/26 02:26:51;;;;;;;8.90;2.10;;;17.50;99.90;;;;;;4916101;29;20048;-83
2022/07/26 02:29:38;;;;;;;7.40;1.80;;;17.50;99.90;;;;;;4916697;29;20111;-83
2022/07/26 02:32:24;;;;;;;9.98;1.52;;;17.50;99.90;;;;;;4915642;29;20492;-82
2022/07/26 02:35:10;;;;;;;10.15;1.50;;;17.50;99.90;;;;;;4916399;29;20054;-82
2022/07/26 02:38:05;;;;;;;8.40;1.88;;;17.50;99.90;;;;;;4916571;29;20139;-82
2022/07/26 02:40:51;;;;;;;8.82;2.03;;;17.40;99.90;;;;;;4916565;29;20052;-81
2022/07/26 02:43:37;;;;;;;7.57;1.40;;;17.40;99.90;;;;;;4915517;29;20162;-82
2022/07/26 02:46:23;;;;;;;6.95;1.30;;;17.40;99.90;;;;;;4914884;29;20111;-82
2022/07/26 02:49:11;;;;;;;5.55;1.15;;;17.40;99.90;;;;;;4916845;29;20048;-83
2022/07/26 02:51:57;;;;;;;5.03;1.15;;;17.30;99.90;;;;;;4916524;29;20059;-83
2022/07/26 02:54:44;;;;;;;8.88;0.98;;;17.30;99.90;;;;;;4916557;29;20056;-82
2022/07/26 02:57:30;;;;;;;9.23;2.03;;;17.30;99.90;;;;;;4916737;29;20052;-84
2022/07/26 03:00:22;;;;;;;6.47;1.10;;;17.20;99.90;;;;;;4916879;29;20055;-83
2022/07/26 03:03:12;;;;;;;3.58;0.60;;;17.30;99.90;;;;;;4917046;29;20288;-82
2022/07/26 03:05:58;;;;;;;7.10;0.70;;;17.30;99.90;;;;;;4919557;29;20062;-82
2022/07/26 03:08:46;;;;;;;4.43;0.73;;;17.30;99.90;;;;;;4919964;29;20409;-83
2022/07/26 03:11:32;;;;;;;7.18;1.25;;;17.30;99.90;;;;;;4921695;29;20052;-84
2022/07/26 03:14:18;;;;;;;9.73;1.30;;;17.30;99.90;;;;;;4920610;29;20059;-81
2022/07/26 03:17:04;;;;;;;4.53;0.70;;;17.20;99.90;;;;;;4921984;29;20135;-81
2022/07/26 03:19:51;;;;;;;4.00;1.15;;;17.20;99.90;;;;;;4915689;29;20048;-81
2022/07/26 03:22:37;;;;;;;4.60;0.88;;;17.20;99.90;;;;;;4899928;29;20639;-82
2022/07/26 03:25:24;;;;;;;6.10;1.05;;;17.20;99.90;;;;;;4915743;29;20052;-80
2022/07/26 03:28:10;;;;;;;6.93;0.90;;;17.20;99.90;;;;;;4915622;29;20058;-81
2022/07/26 03:30:57;;;;;;;9.80;1.30;;;17.20;99.90;;;;;;4915621;29;20135;-83
2022/07/26 03:33:43;;;;;;;11.32;1.30;;;17.20;99.90;;;;;;4919931;29;20043;-79
2022/07/26 03:36:30;;;;;;;6.10;1.10;;;17.20;99.90;;;;;;4918380;29;20671;-81
2022/07/26 03:39:16;;;;;;;4.22;0.85;;;17.10;99.90;;;;;;4916261;29;20058;-82
2022/07/26 03:42:03;;;;;;;6.35;1.17;;;17.00;99.90;;;;;;4915670;29;20646;-83
2022/07/26 03:44:50;;;;;;;4.13;0.80;;;17.00;99.90;;;;;;4914565;29;20060;-81
2022/07/26 03:47:36;;;;;;;7.20;0.70;;;17.00;99.90;;;;;;4917162;29;20519;-83
2022/07/26 03:50:22;;;;;;;10.10;1.13;;;16.90;99.90;;;;;;4902575;29;20156;-82
2022/07/26 03:53:09;;;;;;;8.77;1.10;;;17.00;99.90;;;;;;4920034;29;20223;-83
2022/07/26 03:59:10;;;;;;;5.18;0.80;;;16.90;99.90;;;;;;4919295;29;20671;-83
2022/07/26 04:01:56;;;;;;;7.30;1.10;;;16.90;99.90;;;;;;4903563;29;20060;-84
2022/07/26 04:04:42;;;;;;;8.63;1.30;;;16.90;99.90;;;;;;4918503;29;20183;-84
2022/07/26 04:07:28;;;;;;;5.25;0.75;;;16.90;99.90;;;;;;4918571;29;20066;-83
2022/07/26 04:10:15;;;;;;;4.32;1.15;;;16.90;99.90;;;;;;4919320;29;20400;-85
2022/07/26 04:13:01;;;;;;;6.18;0.80;;;16.90;99.90;;;;;;4919531;29;20060;-82
2022/07/26 04:15:48;;;;;;;6.80;0.73;;;16.90;99.90;;;;;;4919202;29;20155;-82
2022/07/26 04:18:34;;;;;;;5.15;1.52;;;16.90;99.90;;;;;;4920520;29;20079;-81
2022/07/26 04:21:21;;;;;;;5.28;0.80;;;17.00;99.90;;;;;;4927559;29;20487;-81
2022/07/26 04:24:08;;;;;;;2.95;0.63;;;17.00;99.90;;;;;;4927448;29;20059;-82
2022/07/26 04:26:54;;;;;;;9.85;1.48;;;17.00;99.90;;;;;;4917568;29;20048;-83
2022/07/26 04:29:41;;;;;;;10.57;1.35;;;17.00;99.90;;;;;;4918318;29;20067;-82
2022/07/26 04:32:27;;;;;;;8.55;1.45;;;16.90;99.90;;;;;;4920673;29;20052;-85
2022/07/26 04:35:14;;;;;;;6.97;1.25;;;16.80;99.90;;;;;;4919362;29;20515;-83
2022/07/26 04:38:01;;;;;;;11.77;1.67;;;16.80;99.90;;;;;;4918712;29;20110;-82
2022/07/26 04:40:48;;;;;;;7.28;0.90;;;16.70;99.90;;;;;;4918332;29;20060;-83
2022/07/26 04:43:35;;;;;;;3.20;0.60;;;16.60;99.90;;;;;;4917184;29;20056;-83
2022/07/26 04:46:21;;;;;;;6.60;1.23;;;16.60;99.90;;;;;;4917473;29;20139;-82
2022/07/26 04:49:07;;;;;;;6.55;0.88;;;16.60;99.90;;;;;;4917956;29;20052;-82
2022/07/26 04:51:53;;;;;;;8.77;1.08;;;16.60;99.90;;;;;;4920679;29;20048;-81
2022/07/26 04:54:40;;;;;;;4.55;1.05;;;16.60;99.90;;;;;;4922176;28;20080;-84
2022/07/26 04:57:27;;;;;;;11.73;1.40;;;16.60;99.90;;;;;;4924252;29;20424;-83
2022/07/26 05:00:15;;;;;;;6.65;0.60;;;16.70;99.90;;;;;;4920081;29;20111;-82
2022/07/26 05:03:02;;;;;;;9.15;0.82;;;16.70;99.90;;;;;;4919271;29;20052;-82
2022/07/26 05:05:48;;;;;;;4.72;0.80;;;16.70;99.90;;;;;;4923234;29;20064;-84
2022/07/26 05:08:35;;;;;;;5.25;0.80;;;16.70;99.90;;;;;;4924932;29;20059;-82
2022/07/26 05:11:21;;;;;;;10.23;1.45;;;16.70;99.90;;;;;;4925605;29;20058;-82
2022/07/26 05:14:07;;;;;;;6.22;0.90;;;16.70;99.90;;;;;;4924872;29;20052;-83
2022/07/26 05:16:54;;;;;;;6.88;1.35;;;16.80;99.90;;;;;;4920688;29;20051;-83
2022/07/26 05:19:40;;;;;;;5.97;0.90;;;16.80;99.90;;;;;;4919266;29;20048;-82
2022/07/26 05:22:26;;;;;;;6.95;1.10;;;16.80;99.90;;;;;;4917848;29;20051;-82
2022/07/26 05:25:12;;;;;;;5.50;0.90;;;16.80;99.90;;;;;;4918218;29;20052;-80
2022/07/26 05:27:59;;;;;;;7.30;0.90;;;16.90;99.90;;;;;;4918802;29;20337;-81
2022/07/26 05:30:45;;;;;;;5.93;1.00;;;16.80;99.90;;;;;;4919795;29;20096;-84
2022/07/26 05:33:32;;;;;;;9.43;1.35;;;16.90;99.90;;;;;;4920735;29;20112;-82
2022/07/26 05:36:18;;;;;;;4.95;0.98;;;16.90;99.90;;;;;;4919702;29;20052;-81
2022/07/26 05:39:05;;;;;;;7.88;0.93;;;16.90;99.90;;;;;;4918308;29;20072;-85
2022/07/26 05:41:51;;;;;;;10.90;0.98;;;16.90;99.90;;;;;;4917620;29;20056;-82
2022/07/26 05:44:37;;;;;;;10.13;1.60;;;16.90;99.90;;;;;;4916395;28;20147;-80
2022/07/26 05:47:23;;;;;;;5.53;0.77;;;16.90;99.90;;;;;;4915174;29;20091;-83
2022/07/26 05:50:10;;;;;;;4.30;0.73;;;16.90;99.90;;;;;;4918279;29;20182;-81
2022/07/26 05:52:56;;;;;;;8.10;0.80;;;16.90;99.90;;;;;;4919063;29;20052;-83
2022/07/26 05:55:47;;;;;;;7.45;1.10;;;16.90;99.90;;;;;;4919293;29;20551;-86
2022/07/26 05:58:33;;;;;;;5.32;1.00;;;17.00;99.90;;;;;;4921331;29;20147;-84
2022/07/26 06:01:22;;;;;;;7.68;1.25;;;17.00;99.90;;;;;;4920023;29;20055;-82
2022/07/26 06:04:09;;;;;;;12.65;2.30;;;17.10;99.90;;;;;;4925460;29;20063;-83
2022/07/26 06:06:55;;;;;;;3.80;0.63;;;17.10;99.90;;;;;;4927281;29;20048;-82
2022/07/26 06:09:42;;;;;;;9.98;1.08;;;17.00;99.90;;;;;;4921418;29;20056;-85
2022/07/26 06:12:28;;;;;;;5.18;0.82;;;17.00;99.90;;;;;;4908563;29;20099;-82
2022/07/26 06:15:18;;;;;;;9.23;1.20;;;17.00;99.90;;;;;;4923540;29;20432;-84
2022/07/26 06:18:07;;;;;;;5.95;0.73;;;17.10;99.90;;;;;;4921431;29;20135;-82
2022/07/26 06:20:54;;;;;;;5.90;1.20;;;17.20;99.90;;;;;;4919502;29;20116;-82
2022/07/26 06:23:40;;;;;;;7.68;1.15;;;17.20;99.90;;;;;;4921945;29;20063;-83
2022/07/26 06:26:27;;;;;;;8.25;1.33;;;17.20;99.90;;;;;;4925443;29;20112;-82
2022/07/26 06:29:14;;;;;;;6.97;0.75;;;17.20;99.90;;;;;;4923106;29;20052;-80
2022/07/26 06:32:01;;;;;;;7.95;1.60;;;17.20;99.90;;;;;;4907317;29;20052;-83
2022/07/26 06:34:47;;;;;;;5.15;0.93;;;17.20;99.90;;;;;;4929292;29;20111;-84
2022/07/26 06:37:39;;;;;;;5.72;1.08;;;17.20;99.90;;;;;;4927274;29;20095;-82
2022/07/26 06:40:28;;;;;;;;;;;17.20;99.90;;;;;;4904694;29;20054;-82
2022/07/26 06:43:14;;;;;;;8.50;1.48;;;17.30;99.90;;;;;;4921922;29;19923;-82
2022/07/26 06:46:01;;;;;;;7.57;1.52;;;17.40;99.90;;;;;;4917975;29;20051;-81
2022/07/26 06:48:48;;;;;;;13.68;1.48;;;17.50;99.90;;;;;;4917171;29;20055;-83
2022/07/26 06:51:35;;;;;;;6.68;1.38;;;17.60;99.90;;;;;;4916009;29;20055;-83
2022/07/26 06:54:21;;;;;;;12.40;1.75;;;17.70;99.90;;;;;;4916978;29;20424;-83
2022/07/26 06:57:07;;;;;;;13.63;1.85;;;17.70;99.90;;;;;;4917036;29;20060;-83
2022/07/26 06:59:54;;;;;;;7.70;1.55;;;17.60;99.90;;;;;;4919886;29;20139;-83
2022/07/26 07:02:43;;;;;;;10.75;1.80;;;17.60;99.90;;;;;;4917212;29;20059;-84
2022/07/26 07:05:29;;;;;;;8.57;1.45;;;17.50;99.90;;;;;;4917843;29;20044;-85
2022/07/26 07:08:17;;;;;;;6.97;1.65;;;17.50;99.90;;;;;;4918218;29;20056;-86
2022/07/26 07:11:06;;;;;;;8.57;1.40;;;17.60;99.90;;;;;;4921467;29;20059;-83
2022/07/26 07:13:52;;;;;;;7.80;1.75;;;17.60;99.90;;;;;;4923552;29;20374;-81
2022/07/26 07:16:38;;;;;;;8.65;1.25;;;17.60;99.90;;;;;;4923773;29;20056;-84
2022/07/26 07:19:25;;;;;;;9.45;1.58;;;17.70;99.90;;;;;;4915798;29;20047;-81
2022/07/26 07:22:11;;;;;;;7.38;1.77;;;17.90;99.90;;;;;;4916248;29;20147;-85
2022/07/26 07:24:57;;;;;;;8.27;1.75;;;17.90;99.90;;;;;;4918718;29;20107;-82
2022/07/26 07:27:45;;;;;;;9.48;1.33;;;18.00;99.90;;;;;;4915581;29;20507;-81
2022/07/26 07:30:32;;;;;;;13.50;2.03;;;18.10;99.90;;;;;;4916792;29;20060;-84
2022/07/26 07:33:18;;;;;;;8.35;1.80;;;18.20;99.90;;;;;;4920194;29;20139;-85
2022/07/26 07:36:04;;;;;;;10.32;1.55;;;18.30;99.90;;;;;;4919067;29;20135;-83
2022/07/26 07:38:52;;;;;;;5.40;1.23;;;18.30;99.90;;;;;;4919046;29;20088;-84
2022/07/26 07:41:39;;;;;;;11.75;1.65;;;18.40;99.90;;;;;;4920233;29;20044;-85
2022/07/26 07:44:25;;;;;;;9.65;1.75;;;18.40;99.90;;;;;;4918521;29;20492;-83
2022/07/26 07:47:12;;;;;;;10.52;1.83;;;18.50;99.90;;;;;;4918070;29;20060;-81
2022/07/26 07:49:59;;;;;;;9.07;1.65;;;18.60;99.90;;;;;;4916897;29;20056;-84
2022/07/26 07:52:45;;;;;;;12.38;1.67;;;18.60;99.90;;;;;;4919725;29;20096;-80
2022/07/26 07:55:34;;;;;;;13.95;1.95;;;18.60;99.90;;;;;;4917622;29;20091;-82
2022/07/26 07:58:21;;;;;;;8.18;1.60;;;18.60;99.90;;;;;;4917043;29;20052;-84
2022/07/26 08:01:07;;;;;;;11.20;2.05;;;18.50;99.90;;;;;;4919485;29;20112;-83
2022/07/26 08:03:54;;;;;;;13.85;2.72;;;18.40;99.90;;;;;;4918566;29;20052;-81
2022/07/26 08:06:44;;;;;;;10.57;2.05;;;18.20;99.90;;;;;;4905016;29;20059;-82
2022/07/26 08:09:30;;;;;;;18.00;2.47;;;18.20;99.90;;;;;;4907135;29;20059;-84
2022/07/26 08:12:17;;;;;;;8.35;1.60;;;18.10;99.90;;;;;;4919793;29;20048;-82
2022/07/26 08:15:04;;;;;;;12.27;2.10;;;18.20;99.90;;;;;;4924077;29;20477;-83
2022/07/26 08:17:50;;;;;;;15.43;2.03;;;18.20;99.90;;;;;;4918961;29;20056;-84
2022/07/26 08:20:37;;;;;;;15.63;2.75;;;18.30;99.90;;;;;;4917691;29;20052;-83
2022/07/26 08:23:23;;;;;;;17.90;2.55;;;18.50;99.90;;;;;;4919661;29;20048;-81
2022/07/26 08:26:10;;;;;;;17.92;2.97;;;18.60;99.90;;;;;;4916499;29;20049;-81
2022/07/26 08:28:56;;;;;;;13.20;3.15;;;18.70;99.90;;;;;;4916606;29;20070;-83
2022/07/26 08:31:43;;;;;;;14.07;2.45;;;18.70;99.90;;;;;;4916422;29;20509;-84
2022/07/26 08:34:30;;;;;;;13.75;2.25;;;18.80;99.90;;;;;;4923208;29;20052;-86
2022/07/26 08:37:16;;;;;;;14.02;3.33;;;18.90;99.90;;;;;;4908019;29;20055;-85
2022/07/26 08:40:04;;;;;;;17.02;3.13;;;18.90;99.90;;;;;;4920139;29;20048;-84
2022/07/26 08:42:53;;;;;;;13.00;2.08;;;19.00;99.90;;;;;;4920024;29;20048;-84
2022/07/26 08:45:44;;;;;;;8.35;2.00;;;19.10;99.90;;;;;;4905903;29;20115;-84
2022/07/26 08:48:31;;;;;;;24.73;2.65;;;19.00;99.90;;;;;;4925485;29;20123;-81
2022/07/26 08:51:20;;;;;;;13.55;2.45;;;19.10;99.90;;;;;;4920711;29;20051;-83
2022/07/26 08:54:12;;;;;;;16.88;3.35;;;19.30;99.90;;;;;;4920047;29;20539;-85
2022/07/26 08:56:59;;;;;;;10.35;1.98;;;19.30;99.90;;;;;;4920694;29;20056;-83
2022/07/26 09:00:23;;;;;;;9.60;1.90;;;19.30;99.90;;;;;;4907869;29;20044;-84
2022/07/26 09:03:24;;;;;;;13.93;1.90;;;19.30;99.50;;;;;;4918584;29;20048;-85
2022/07/26 09:06:11;;;;;;;12.55;1.90;;;19.40;98.40;;;;;;4918269;29;20080;-82
2022/07/26 09:09:11;;;;;;;13.30;2.00;;;19.50;98.60;;;;;;4918451;29;20056;-84
2022/07/26 09:11:58;;;;;;;12.13;2.05;;;19.80;98.50;;;;;;4918068;29;20066;-82
2022/07/26 09:14:45;;;;;;;12.98;2.33;;;19.90;98.40;;;;;;4923495;29;20416;-85
2022/07/26 09:17:44;;;;;;;12.88;1.77;;;20.30;98.40;;;;;;4921324;29;20059;-84
2022/07/26 09:20:34;;;;;;;7.65;1.70;;;20.40;97.80;;;;;;4918081;29;20048;-80
2022/07/26 09:23:23;;;;;;;10.23;2.08;;;20.30;97.60;;;;;;4922271;29;20059;-81
2022/07/26 09:26:10;;;;;;;10.80;1.92;;;20.20;97.00;;;;;;4920067;29;20535;-81
2022/07/26 09:29:05;;;;;;;11.13;2.00;;;20.10;96.80;;;;;;4903584;29;20105;-83
2022/07/26 09:31:52;;;;;;;9.48;2.53;;;20.20;96.50;;;;;;4918322;29;20051;-81
2022/07/26 09:34:39;;;;;;;8.20;1.48;;;20.30;96.70;;;;;;4919822;29;20056;-81
2022/07/26 09:37:35;;;;;;;8.90;2.00;;;20.30;96.40;;;;;;4902815;29;20063;-82
2022/07/26 09:40:34;;;;;;;10.68;1.85;;;20.40;96.10;;;;;;4921795;29;20044;-84
2022/07/26 09:43:20;;;;;;;10.07;1.98;;;20.40;95.90;;;;;;4920128;29;20048;-81
2022/07/26 09:46:09;;;;;;;8.98;1.67;;;20.60;96.10;;;;;;4917193;29;20040;-83
2022/07/26 09:49:16;;;;;;;8.98;2.72;;;20.80;95.90;;;;;;4919608;29;20048;-81
2022/07/26 09:52:17;;;;;;;11.07;1.38;;;20.80;94.80;;;;;;4920364;29;20099;-84
2022/07/26 09:55:09;;;;;;;7.93;1.45;;;20.80;94.70;;;;;;4921800;29;20519;-82
2022/07/26 09:57:56;;;;;;;6.22;1.50;;;20.80;95.10;;;;;;4918584;29;20052;-82
2022/07/26 10:00:42;;;;;;;7.32;1.75;;;21.00;94.70;;;;;;4916198;29;20052;-83
2022/07/26 10:03:30;;;;;;;5.72;1.33;;;21.20;94.50;;;;;;4919484;29;20551;-81
2022/07/26 10:06:16;;;;;;;8.60;1.52;;;21.30;94.00;;;;;;4917651;29;20055;-81
2022/07/26 10:09:04;;;;;;;5.07;1.17;;;21.80;94.40;;;;;;4916238;29;20060;-83
2022/07/26 10:11:56;;;;;;;7.10;1.27;;;22.10;93.60;;;;;;4915824;29;20401;-85
2022/07/26 10:14:45;;;;;;;6.78;1.48;;;22.20;92.80;;;;;;4901926;29;20643;-85
2022/07/26 10:17:40;;;;;;;4.35;1.10;;;22.20;92.50;;;;;;4916675;29;20103;-80
2022/07/26 10:20:39;;;;;;;9.45;1.52;;;22.30;91.90;;;;;;4916831;29;20056;-79
2022/07/26 10:23:40;;;;;;;4.55;0.82;;;22.50;91.80;;;;;;4916254;29;20056;-79
2022/07/26 10:26:32;;;;;;;6.82;1.10;;;22.70;91.00;;;;;;4915211;29;20496;-82
2022/07/26 10:29:25;;;;;;;7.60;1.50;;;22.70;91.20;;;;;;4914795;29;20056;-78
2022/07/26 10:32:15;;;;;;;8.60;1.00;;;22.70;91.30;;;;;;4915257;29;20052;-77
2022/07/26 10:35:31;;;;;;;6.75;1.33;;;22.80;91.50;;;;;;4915278;29;20052;-81
2022/07/26 10:38:20;;;;;;;3.05;0.82;;;22.80;90.60;;;;;;4915591;29;20141;-78
2022/07/26 10:41:07;;;;;;;5.72;1.00;;;23.00;90.90;;;;;;4916593;29;20048;-82
2022/07/26 10:44:18;;;;;;;7.05;1.23;;;23.40;90.60;;;;;;4914645;29;20511;-79
2022/07/26 10:47:07;;;;;;;9.75;1.30;;;23.70;90.00;;;;;;4914759;28;20512;-79
2022/07/26 10:49:57;;;;;;;7.63;1.20;;;23.70;90.10;;;;;;4914556;29;20148;-80
2022/07/26 10:52:58;;;;;;;3.08;1.00;;;23.80;90.20;;;;;;4918764;29;20511;-79
2022/07/26 10:55:55;;;;;;;7.00;1.25;;;23.90;89.10;;;;;;4916820;29;20071;-78
2022/07/26 10:58:42;;;;;;;7.10;1.00;;;24.10;89.70;;;;;;4916463;29;20044;-77
2022/07/26 11:01:37;;;;;;;5.47;1.00;;;24.20;87.50;;;;;;4902194;29;20094;-77
2022/07/26 11:04:24;;;;;;;5.47;1.40;;;24.20;84.90;;;;;;4899806;29;20400;-79
2022/07/26 11:07:11;;;;;;;7.18;1.48;;;24.10;86.00;;;;;;4915702;29;20060;-79
2022/07/26 11:09:59;;;;;;;5.38;1.02;;;24.30;87.30;;;;;;4915226;29;20087;-80
2022/07/26 11:12:45;;;;;;;9.95;1.17;;;24.30;86.20;;;;;;4915682;29;20070;-79
2022/07/26 11:15:32;;;;;;;8.73;1.17;;;24.30;86.00;;;;;;4915995;29;20055;-79
2022/07/26 11:18:25;;;;;;;7.18;1.13;;;24.50;87.30;;;;;;4915767;28;20487;-79
2022/07/26 11:21:16;;;;;;;7.40;1.15;;;24.50;87.30;;;;;;4915398;29;20484;-80
2022/07/26 11:24:03;;;;;;;7.03;1.20;;;24.70;84.70;;;;;;4915580;29;20409;-78
2022/07/26 11:26:49;;;;;;;6.43;1.20;;;24.60;85.50;;;;;;4915601;29;20575;-79
2022/07/26 11:29:36;;;;;;;7.50;1.30;;;24.80;85.50;;;;;;4903014;29;20107;-79
2022/07/26 11:32:24;;;;;;;10.45;1.23;;;25.00;85.40;;;;;;4915300;29;20063;-79
2022/07/26 11:35:10;;;;;;;8.68;1.92;;;24.70;83.10;;;;;;4915641;29;20120;-80
2022/07/26 11:38:00;;;;;;;5.93;0.90;;;24.50;83.40;;;;;;4913873;29;20493;-80
2022/07/26 11:40:47;;;;;;;8.07;1.73;;;24.20;83.40;;;;;;4914930;29;20146;-79
2022/07/26 11:43:41;;;;;;;7.32;1.15;;;23.90;84.30;;;;;;4913909;29;20048;-78
2022/07/26 11:46:38;;;;;;;6.35;1.95;;;23.70;83.70;;;;;;4915366;29;20055;-80
2022/07/26 11:49:29;;;;;;;6.22;1.23;;;23.70;86.10;;;;;;4914539;29;20494;-78
2022/07/26 11:52:16;;;;;;;8.00;1.40;;;23.90;85.50;;;;;;4916810;29;20270;-79
2022/07/26 11:55:03;;;;;;;3.88;0.88;;;23.80;86.00;;;;;;4916063;29;20152;-80
2022/07/26 11:57:51;;;;;;;12.80;1.48;;;23.70;85.20;;;;;;4916906;29;20052;-80
2022/07/26 12:00:40;;;;;;;8.70;1.60;;;23.60;84.50;;;;;;4916295;29;20052;-81
2022/07/26 12:03:26;;;;;;;9.15;1.80;;;23.50;85.70;;;;;;4913939;29;20088;-79
2022/07/26 12:06:16;;;;;;;7.35;1.58;;;23.40;86.70;;;;;;4912920;29;20048;-79
2022/07/26 12:09:02;;;;;;;7.22;1.02;;;23.50;86.90;;;;;;4917365;29;20142;-82
2022/07/26 12:11:49;;;;;;;4.80;1.02;;;23.70;87.50;;;;;;4919689;29;20048;-81
2022/07/26 12:14:37;;;;;;;7.40;1.40;;;23.60;86.10;;;;;;4918936;29;20056;-80
2022/07/26 12:17:23;;;;;;;5.70;1.00;;;23.50;86.10;;;;;;4920802;29;20781;-80
2022/07/26 12:20:14;;;;;;;5.57;1.33;;;23.60;87.20;;;;;;4919333;29;20208;-80
2022/07/26 12:23:04;;;;;;;7.97;1.70;;;24.20;85.20;;;;;;4918474;29;20103;-80
2022/07/26 12:25:53;;;;;;;4.03;0.80;;;24.30;85.00;;;;;;4918701;29;20055;-80
2022/07/26 12:28:41;;;;;;;7.70;1.30;;;24.40;83.40;;;;;;4917969;29;20060;-80
2022/07/26 12:31:29;;;;;;;4.93;0.90;;;24.70;83.20;;;;;;4918691;29;20563;-79
2022/07/26 12:34:21;;;;;;;4.97;0.90;;;24.70;81.20;;;;;;4920042;29;20127;-80
2022/07/26 12:37:12;;;;;;;5.18;1.15;;;24.60;79.00;;;;;;4917451;29;20048;-78
2022/07/26 12:40:03;;;;;;;6.35;1.40;;;24.40;78.40;;;;;;4916245;29;20102;-79
2022/07/26 12:42:49;;;;;;;7.60;0.98;;;25.00;79.80;;;;;;4888694;29;20627;-78
2022/07/26 12:45:38;;;;;;;5.32;1.10;;;25.30;78.00;;;;;;4917705;29;20063;-80
2022/07/26 12:48:24;;;;;;;9.55;1.30;;;25.40;77.30;;;;;;4917348;29;20784;-78
2022/07/26 12:51:11;;;;;;;7.05;1.00;;;26.10;76.40;;;;;;4917647;29;20052;-80
2022/07/26 12:53:57;;;;;;;6.53;0.90;;;26.40;76.40;;;;;;4916518;29;20052;-78
2022/07/26 12:56:43;;;;;;;4.00;1.17;;;26.60;74.90;;;;;;4917137;29;20147;-79
2022/07/26 12:59:29;;;;;;;4.63;1.00;;;26.80;71.80;;;;;;4916904;29;20413;-79
2022/07/26 13:02:17;;;;;;;5.13;0.90;;;27.10;70.20;;;;;;4915952;29;20107;-79
2022/07/26 13:05:08;;;;;;;3.42;0.50;;;26.80;69.90;;;;;;4917126;29;20048;-79
2022/07/26 13:07:54;;;;;;;5.95;0.70;;;26.50;68.00;;;;;;4916593;29;20103;-79
2022/07/26 13:10:41;;;;;;;6.05;1.45;;;26.10;68.10;;;;;;4904128;29;20052;-79
2022/07/26 13:13:27;;;;;;;5.45;0.80;;;26.40;67.90;;;;;;4917540;29;20052;-77
2022/07/26 13:16:13;;;;;;;5.80;1.08;;;27.00;68.40;;;;;;4916837;29;20059;-78
2022/07/26 13:19:00;;;;;;;5.47;0.98;;;26.80;67.60;;;;;;4899755;29;20107;-79
2022/07/26 13:21:46;;;;;;;4.97;1.08;;;27.00;66.60;;;;;;4916228;29;20052;-79
2022/07/26 13:24:33;;;;;;;6.43;0.85;;;26.90;67.60;;;;;;4917052;29;20420;-80
2022/07/26 13:31:24;;;;;;;3.37;0.70;;;26.30;65.20;;;;;;4920839;29;20050;-79
2022/07/26 13:34:11;;;;;;;7.03;0.80;;;26.20;68.80;;;;;;4916787;29;20473;-79
2022/07/26 13:37:00;;;;;;;5.68;1.00;;;26.10;67.70;;;;;;4915963;29;20092;-80
2022/07/26 13:39:47;;;;;;;5.40;0.90;;;26.40;68.60;;;;;;4916740;29;20654;-79
2022/07/26 13:42:33;;;;;;;5.47;1.15;;;27.10;68.10;;;;;;4915641;29;20063;-80
2022/07/26 13:45:19;;;;;;;5.38;0.88;;;27.10;66.90;;;;;;4916490;29;20429;-81
2022/07/26 13:48:06;;;;;;;8.35;0.90;;;27.20;66.50;;;;;;4916659;29;20472;-79
2022/07/26 13:50:53;;;;;;;3.85;0.80;;;27.50;66.20;;;;;;4916297;29;20080;-81
2022/07/26 13:53:39;;;;;;;5.55;1.00;;;27.50;66.20;;;;;;4916751;29;20052;-81
2022/07/26 13:56:26;;;;;;;5.13;0.70;;;27.10;65.20;;;;;;4916855;29;20048;-80
2022/07/26 13:59:13;;;;;;;4.50;0.93;;;26.40;65.70;;;;;;4916458;29;20118;-79
2022/07/26 14:01:59;;;;;;;5.57;0.70;;;25.60;66.70;;;;;;4903451;29;20405;-78
2022/07/26 14:04:45;;;;;;;7.75;1.08;;;25.30;68.60;;;;;;4916243;29;20096;-81
2022/07/26 14:07:31;;;;;;;4.82;0.77;;;24.90;72.30;;;;;;4916157;29;20056;-80
2022/07/26 14:10:19;;;;;;;4.90;0.73;;;24.50;74.50;;;;;;4915221;29;20052;-80
2022/07/26 14:13:07;;;;;;;4.57;0.82;;;24.30;76.50;;;;;;4916532;29;20052;-79
2022/07/26 14:15:53;;;;;;;4.22;0.80;;;24.00;78.40;;;;;;4915901;29;20052;-77
2022/07/26 14:18:39;;;;;;;5.43;0.88;;;23.70;79.80;;;;;;4914308;29;20048;-78
2022/07/26 14:21:30;;;;;;;5.00;0.90;;;23.40;79.20;;;;;;4916079;29;20131;-80
2022/07/26 14:24:19;;;;;;;7.30;1.13;;;23.70;79.60;;;;;;4918744;29;20465;-80
2022/07/26 14:27:05;;;;;;;5.47;1.15;;;24.70;79.40;;;;;;4915856;29;20111;-81
2022/07/26 14:29:52;;;;;;;12.23;2.70;;;25.80;75.80;;;;;;4899014;29;20512;-81
2022/07/26 14:32:38;;;;;;;5.00;1.13;;;25.60;75.60;;;;;;4915509;29;20048;-80
2022/07/26 14:35:25;;;;;;;3.92;0.80;;;26.00;73.80;;;;;;4915231;29;20044;-78
2022/07/26 14:38:12;;;;;;;4.40;0.70;;;25.80;73.20;;;;;;4915171;29;20048;-79
2022/07/26 14:40:59;;;;;;;3.65;1.02;;;25.60;72.30;;;;;;4914708;29;20476;-77
2022/07/26 14:43:46;;;;;;;5.38;0.60;;;26.50;71.90;;;;;;4914829;29;20560;-78